地図

経路データ

SID SEASON NUMBER BASIN SUBBASIN NAME ISO_TIME NATURE LAT LON WMO_WIND WMO_PRES WMO_AGENCY TRACK_TYPE DIST2LAND LANDFALL IFLAG USA_AGENCY USA_ATCF_ID USA_LAT USA_LON USA_RECORD USA_STATUS USA_WIND USA_PRES USA_SSHS USA_R34_NE USA_R34_SE USA_R34_SW USA_R34_NW USA_R50_NE USA_R50_SE USA_R50_SW USA_R50_NW USA_R64_NE USA_R64_SE USA_R64_SW USA_R64_NW USA_POCI USA_ROCI USA_RMW USA_EYE TOKYO_LAT TOKYO_LON TOKYO_GRADE TOKYO_WIND TOKYO_PRES TOKYO_R50_DIR TOKYO_R50_LONG TOKYO_R50_SHORT TOKYO_R30_DIR TOKYO_R30_LONG TOKYO_R30_SHORT TOKYO_LAND CMA_LAT CMA_LON CMA_CAT CMA_WIND CMA_PRES HKO_LAT HKO_LON HKO_CAT HKO_WIND HKO_PRES NEWDELHI_LAT NEWDELHI_LON NEWDELHI_GRADE NEWDELHI_WIND NEWDELHI_PRES NEWDELHI_CI NEWDELHI_DP NEWDELHI_POCI REUNION_LAT REUNION_LON REUNION_TYPE REUNION_WIND REUNION_PRES REUNION_TNUM REUNION_CI REUNION_RMW REUNION_R34_NE REUNION_R34_SE REUNION_R34_SW REUNION_R34_NW REUNION_R50_NE REUNION_R50_SE REUNION_R50_SW REUNION_R50_NW REUNION_R64_NE REUNION_R64_SE REUNION_R64_SW REUNION_R64_NW BOM_LAT BOM_LON BOM_TYPE BOM_WIND BOM_PRES BOM_TNUM BOM_CI BOM_RMW BOM_R34_NE BOM_R34_SE BOM_R34_SW BOM_R34_NW BOM_R50_NE BOM_R50_SE BOM_R50_SW BOM_R50_NW BOM_R64_NE BOM_R64_SE BOM_R64_SW BOM_R64_NW BOM_ROCI BOM_POCI BOM_EYE BOM_POS_METHOD BOM_PRES_METHOD NADI_LAT NADI_LON NADI_CAT NADI_WIND NADI_PRES WELLINGTON_LAT WELLINGTON_LON WELLINGTON_WIND WELLINGTON_PRES DS824_LAT DS824_LON DS824_STAGE DS824_WIND DS824_PRES TD9636_LAT TD9636_LON TD9636_STAGE TD9636_WIND TD9636_PRES TD9635_LAT TD9635_LON TD9635_WIND TD9635_PRES TD9635_ROCI NEUMANN_LAT NEUMANN_LON NEUMANN_CLASS NEUMANN_WIND NEUMANN_PRES MLC_LAT MLC_LON MLC_CLASS MLC_WIND MLC_PRES USA_GUST BOM_GUST BOM_GUST_PER REUNION_GUST REUNION_GUST_PER USA_SEAHGT USA_SEARAD_NE USA_SEARAD_SE USA_SEARAD_SW USA_SEARAD_NW STORM_SPEED STORM_DIR
1997045S11163 1997 13 SP MM HAROLD 1997-02-14 06:00:00 TS -11.0000 163.000 main 79 79 O___________O_ jtwc_sh SH261997 -11.0000 163.000 20 -1 -11.0000 163.000 TC 20 1 51
1997045S11163 1997 13 SP MM HAROLD 1997-02-14 09:00:00 TS -10.9750 163.045 main 79 79 P___________P_ SH261997 -10.9750 163.045 20 -1 -10.9750 163.045 TC 20 0 0
1997045S11163 1997 13 SP MM HAROLD 1997-02-14 12:00:00 TS -11.0000 163.000 main 79 64 O___________O_ jtwc_sh SH261997 -11.0000 163.000 20 -1 -11.0000 163.000 TC 20 3 240
1997045S11163 1997 13 SP MM HAROLD 1997-02-14 15:00:00 TS -11.1125 162.802 main 64 55 P___________P_ SH261997 -11.1125 162.802 20 -1 -11.1125 162.802 TC 20 6 239
1997045S11163 1997 13 SP MM HAROLD 1997-02-14 18:00:00 TS -11.3000 162.500 main 60 57 O___________O_ jtwc_sh SH261997 -11.3000 162.500 20 -1 -11.3000 162.500 TC 20 7 235
1997045S11163 1997 13 SP MM HAROLD 1997-02-14 21:00:00 TS -11.5349 162.180 main 78 78 P___________P_ SH261997 -11.5349 162.180 20 -1 -11.5349 162.180 TC 20 9 234
1997045S11163 1997 13 SP MM HAROLD 1997-02-15 00:00:00 TS -11.8000 161.800 main 111 111 O___________O_ jtwc_sh SH261997 -11.8000 161.800 20 -1 -11.8000 161.800 TC 20 10 237
1997045S11163 1997 13 SP MM HAROLD 1997-02-15 03:00:00 TS -12.0575 161.358 main 151 151 P___________P_ SH261997 -12.0575 161.358 20 -1 -12.0575 161.358 TC 20 10 240
1997045S11163 1997 13 SP MM HAROLD 1997-02-15 06:00:00 TS -12.3000 160.900 main 194 194 O___________O_ jtwc_sh SH261997 -12.3000 160.900 20 -1 -12.3000 160.900 TC 20 10 241
1997045S11163 1997 13 SP MM HAROLD 1997-02-15 09:00:00 TS -12.5300 160.478 main 237 237 P___________P_ SH261997 -12.5300 160.478 20 -1 -12.5300 160.478 TC 20 9 243
1997045S11163 1997 13 SP MM HAROLD 1997-02-15 12:00:00 TS -12.7000 160.100 main 280 280 O___________O_ jtwc_sh SH261997 -12.7000 160.100 20 -1 -12.7000 160.100 TC 20 7 251
1997045S11163 1997 13 SP EA HAROLD 1997-02-15 15:00:00 TS -12.7649 159.777 main 308 308 P___________P_ SH261997 -12.7649 159.777 22 -1 -12.7649 159.777 TC 22 6 260
1997045S11163 1997 13 SP EA HAROLD 1997-02-15 18:00:00 TS -12.8000 159.500 main 328 328 O___________O_ jtwc_sh SH261997 -12.8000 159.500 25 -1 -12.8000 159.500 TC 25 5 257
1997045S11163 1997 13 SP EA HAROLD 1997-02-15 21:00:00 TS -12.8849 159.250 main 353 353 P___________P_ SH261997 -12.8849 159.250 25 -1 -12.8849 159.250 TC 25 5 248
1997045S11163 1997 13 SP EA HAROLD 1997-02-16 00:00:00 TS -13.0000 159.000 main 368 368 O___________O_ jtwc_sh SH261997 -13.0000 159.000 25 -1 -13.0000 159.000 TC 25 6 245
1997045S11163 1997 13 SP EA HAROLD 1997-02-16 03:00:00 TS -13.1275 158.707 main 388 388 P___________P_ SH261997 -13.1275 158.707 25 -1 -13.1275 158.707 TC 25 9 241
1997045S11163 1997 13 SP EA HAROLD 1997-02-16 06:00:00 TS -13.4091 158.236 30 1000 bom main 439 439 O_____O_O___O_ jtwc_sh SH261997 -13.3000 158.400 25 -1 -13.7000 157.800 20 30 1000 2.50000 -13.7000 157.800 25 1000 -13.7000 157.800 25 1000 -13.3000 158.400 TC 25 10 234
1997045S11163 1997 13 SP EA HAROLD 1997-02-16 09:00:00 TS -13.7053 157.895 main 483 483 P_____PIP___P_ SH261997 -13.5275 158.100 25 -1 -13.9425 157.623 20 30 1000 -13.9425 157.623 25 1000 -13.9425 157.623 27 998 -13.5275 158.100 TC 25 9 226
1997045S11163 1997 13 SP EA HAROLD 1997-02-16 12:00:00 TS -14.0118 157.588 30 1000 bom main 527 527 O_____O_O___O_ jtwc_sh SH261997 -13.8000 157.800 25 -1 -14.2000 157.400 20 30 1000 2.50000 -14.2000 157.400 25 1000 -14.2000 157.400 30 997 -13.8000 157.800 TC 25 9 225
1997045S11163 1997 13 SP EA HAROLD 1997-02-16 15:00:00 TS -14.3220 157.267 main 572 572 P_____PIP___P_ SH261997 -14.0774 157.507 27 -1 -14.4850 157.107 20 32 997 -14.4850 157.107 30 997 -14.4850 157.107 32 996 -14.0774 157.507 TC 27 9 224
1997045S11163 1997 13 SP EA HAROLD 1997-02-16 18:00:00 TS -14.6400 156.960 35 995 bom main 617 617 O_____O_O___O_ jtwc_sh SH261997 -14.4000 157.200 30 -1 -14.8000 156.800 30 35 995 3.00000 -14.8000 156.800 35 995 -14.8000 156.800 35 995 -14.4000 157.200 TC 30 9 220
1997045S11163 1997 13 SP EA HAROLD 1997-02-16 21:00:00 TS -15.0025 156.670 main 672 672 P_____PIP___P_ SH261997 -14.7925 156.850 32 -1 -15.1424 156.550 30 37 992 -15.1424 156.550 37 992 -15.1424 156.550 37 992 -14.7925 156.850 TC 32 9 217
1997045S11163 1997 13 SP EA HAROLD 1997-02-17 00:00:00 TS -15.3800 156.380 40 990 bom main 727 727 O_____O_O___O_ jtwc_sh SH261997 -15.2000 156.500 35 0 -15.5000 156.300 30 40 990 3.00000 -15.5000 156.300 40 990 -15.5000 156.300 40 990 -15.2000 156.500 TC 35 9 218
1997045S11163 1997 13 SP EA HAROLD 1997-02-17 03:00:00 TS -15.7435 156.066 main 772 772 P_____PIP___P_ SH261997 -15.5724 156.200 37 0 -15.8576 155.978 30 42 988 -15.8576 155.978 42 988 -15.8576 155.978 42 988 -15.5724 156.200 TC 37 9 220
1997045S11163 1997 13 SP EA HAROLD 1997-02-17 06:00:00 TS -16.0800 155.780 45 987 bom main 826 819 O_____O_O___O_ jtwc_sh SH261997 -15.9000 155.900 40 0 -16.2000 155.700 30 45 987 3.00000 -16.2000 155.700 45 987 -16.2000 155.700 45 987 -15.9000 155.900 TC 40 8 219
1997045S11163 1997 13 SP EA HAROLD 1997-02-17 09:00:00 TS -16.3795 155.538 main 830 809 P_____PIP___P_ SH261997 -16.1651 155.513 42 0 -16.5224 155.555 30 47 986 -16.5224 155.555 47 986 -16.5224 155.555 47 986 -16.1651 155.513 TC 42 7 214
1997045S11163 1997 13 SP EA HAROLD 1997-02-17 12:00:00 TS -16.6400 155.380 50 985 bom main 809 781 O_____O_O___O_ jtwc_sh SH261997 -16.4000 155.200 45 0 -16.8000 155.500 30 50 985 3.50000 -16.8000 155.500 50 985 -16.8000 155.500 50 985 -16.4000 155.200 TC 45 5 202
1997045S11163 1997 13 SP EA HAROLD 1997-02-17 15:00:00 TS -16.8720 155.334 main 781 763 P_____PIP___P_ SH261997 -16.6574 155.097 50 0 -17.0150 155.492 30 50 985 -17.0150 155.492 50 985 -17.0150 155.492 50 985 -16.6574 155.097 TC 50 4 186
1997045S11163 1997 13 SP EA HAROLD 1997-02-17 18:00:00 TS -17.0800 155.340 50 985 bom main 763 746 O_____O_O___O_ jtwc_sh SH261997 -16.9000 155.100 55 0 -17.2000 155.500 30 50 985 3.50000 -17.2000 155.500 50 985 -17.2000 155.500 50 985 -16.9000 155.100 TC 55 4 188
1997045S11163 1997 13 SP EA HAROLD 1997-02-17 21:00:00 TS -17.2920 155.282 main 746 728 P_____PIP___P_ SH261997 -17.1075 155.063 55 0 -17.4150 155.428 30 50 985 -17.4150 155.428 50 985 -17.4150 155.428 50 985 -17.1075 155.063 TC 55 4 188
1997045S11163 1997 13 SP EA HAROLD 1997-02-18 00:00:00 TS -17.4800 155.280 50 985 bom main 728 720 O_____O_O___O_ jtwc_sh SH261997 -17.3000 155.100 55 0 -17.6000 155.400 30 50 985 3.50000 -17.6000 155.400 50 985 -17.6000 155.400 50 985 -17.3000 155.100 TC 55 4 160
1997045S11163 1997 13 SP EA HAROLD 1997-02-18 03:00:00 TS -17.6350 155.411 main 727 719 P_____PIP___P_ SH261997 -17.5149 155.247 55 0 -17.7150 155.520 30 50 985 -17.7150 155.520 50 985 -17.7150 155.520 50 985 -17.5149 155.247 TC 55 4 131
1997045S11163 1997 13 SP EA HAROLD 1997-02-18 06:00:00 TS -17.7600 155.620 50 985 bom main 725 725 O_____O_O___O_ jtwc_sh SH261997 -17.7000 155.500 55 0 -17.8000 155.700 30 50 985 3.50000 -17.8000 155.700 50 985 -17.8000 155.700 50 985 -17.7000 155.500 TC 55 4 119
1997045S11163 1997 13 SP EA HAROLD 1997-02-18 09:00:00 TS -17.8539 155.820 main 732 732 P_____PIP___P_ SH261997 -17.8075 155.820 55 0 -17.8849 155.820 30 52 982 -17.8849 155.820 52 982 -17.8849 155.820 52 982 -17.8075 155.820 TC 55 5 115
1997045S11163 1997 13 SP EA HAROLD 1997-02-18 12:00:00 TS -17.9600 156.080 55 980 bom main 747 747 O_____O_O___O_ jtwc_sh SH261997 -17.9000 156.200 55 0 -18.0000 156.000 30 55 980 4.00000 -18.0000 156.000 55 980 -18.0000 156.000 55 980 -17.9000 156.200 TC 55 6 115
1997045S11163 1997 13 SP EA HAROLD 1997-02-18 15:00:00 TS -18.1250 156.432 main 763 763 P_____PIP___P_ SH261997 -18.0350 156.600 55 0 -18.1851 156.320 30 57 977 -18.1851 156.320 57 977 -18.1851 156.320 57 977 -18.0350 156.600 TC 55 8 117
1997045S11163 1997 13 SP EA HAROLD 1997-02-18 18:00:00 TS -18.3200 156.820 60 975 bom main 781 751 O_____O_O___O_ jtwc_sh SH261997 -18.2000 157.000 55 0 -18.4000 156.700 30 60 975 4.00000 -18.4000 156.700 60 975 -18.4000 156.700 60 975 -18.2000 157.000 TC 55 8 119
1997045S11163 1997 13 SP EA HAROLD 1997-02-18 21:00:00 TS -18.5124 157.166 main 740 704 P_____PIP___P_ SH261997 -18.3924 157.350 55 0 -18.5924 157.043 30 57 977 -18.5924 157.043 57 977 -18.5924 157.043 57 977 -18.3924 157.350 TC 55 8 121
1997045S11163 1997 13 SP EA HAROLD 1997-02-19 00:00:00 TS -18.7200 157.520 55 980 bom main 704 657 O_____O_O___O_ jtwc_sh SH261997 -18.6000 157.700 55 0 -18.8000 157.400 30 55 980 4.00000 -18.8000 157.400 55 980 -18.8000 157.400 55 980 -18.6000 157.700 TC 55 8 121
1997045S11163 1997 13 SP EA HAROLD 1997-02-19 03:00:00 TS -18.9348 157.895 main 657 609 P_____PIP___P_ SH261997 -18.7850 158.093 55 0 -19.0347 157.763 30 55 980 -19.0347 157.763 55 980 -19.0347 157.763 55 980 -18.7850 158.093 TC 55 9 121
1997045S11163 1997 13 SP EA HAROLD 1997-02-19 06:00:00 TS -19.1800 158.320 55 980 bom main 609 550 O_____O_O___O_ jtwc_sh SH261997 -19.0000 158.500 55 0 -19.3000 158.200 30 55 980 4.00000 -19.3000 158.200 55 980 -19.3000 158.200 55 980 -19.0000 158.500 TC 55 10 122
1997045S11163 1997 13 SP EA HAROLD 1997-02-19 09:00:00 TS -19.4679 158.807 main 550 494 P_____PIP___P_ SH261997 -19.2698 158.885 55 0 -19.5999 158.755 30 55 980 -19.5999 158.755 55 980 -19.5999 158.755 55 980 -19.2698 158.885 TC 55 12 121
1997045S11163 1997 13 SP EA HAROLD 1997-02-19 12:00:00 TS -19.7800 159.360 55 980 bom main 483 428 O_____O_O___O_ jtwc_sh SH261997 -19.6000 159.300 55 0 -19.9000 159.400 30 55 980 4.00000 -19.9000 159.400 55 980 -19.9000 159.400 55 980 -19.6000 159.300 TC 55 13 119
1997045S11163 1997 13 SP EA HAROLD 1997-02-19 15:00:00 TS -20.0751 159.979 main 417 354 P_____PIP___P_ SH261997 -19.9850 159.785 55 0 -20.1351 160.108 30 52 982 -20.1351 160.108 52 982 -20.1351 160.108 52 982 -19.9850 159.785 TC 55 13 118
1997045S11163 1997 13 SP MM HAROLD 1997-02-19 18:00:00 TS -20.4000 160.600 50 985 nadi main 354 305 O_____O_O___O_ jtwc_sh SH261997 -20.4000 160.300 55 0 -20.4000 160.800 30 50 985 3.50000 -20.4000 160.800 50 985 -20.4000 160.800 50 985 -20.4000 160.300 TC 55 13 123
1997045S11163 1997 13 SP MM HAROLD 1997-02-19 21:00:00 TS -20.7879 161.166 main 296 265 P_____PIP___P_ SH261997 -20.7924 160.800 52 0 -20.7849 161.410 30 47 986 -20.7849 161.410 47 986 -20.7849 161.410 47 986 -20.7924 160.800 TC 52 13 129
1997045S11163 1997 13 SP MM HAROLD 1997-02-20 00:00:00 TS -21.2000 161.660 45 987 nadi main 259 247 O_____O_O___O_ jtwc_sh SH261997 -21.2000 161.300 50 0 -21.2000 161.900 30 45 987 3.50000 -21.2000 161.900 45 987 -21.2000 161.900 45 987 -21.2000 161.300 TC 50 12 133
1997045S11163 1997 13 SP MM HAROLD 1997-02-20 03:00:00 TS -21.5793 162.061 main 245 240 P_____PIP___P_ SH261997 -21.6349 161.808 47 0 -21.5421 162.231 30 42 988 -21.5421 162.231 42 988 -21.5421 162.231 42 988 -21.6349 161.808 TC 47 11 138
1997045S11163 1997 13 SP MM HAROLD 1997-02-20 06:00:00 TS -21.9800 162.420 40 990 nadi main 246 235 O_____O_O___O_ jtwc_sh SH261997 -22.1000 162.300 45 0 -21.9000 162.500 30 40 990 3.50000 -21.9000 162.500 40 990 -21.9000 162.500 40 990 -22.1000 162.300 TC 45 11 140
1997045S11163 1997 13 SP MM HAROLD 1997-02-20 09:00:00 TS -22.3988 162.796 main 243 235 P_____PIP___P_ SH261997 -22.5774 162.765 40 0 -22.2898 162.821 30 37 991 -22.2748 162.814 40 991 -22.2748 162.814 40 991 -22.5774 162.765 TC 40 12 143
1997045S11163 1997 13 SP MM HAROLD 1997-02-20 12:00:00 TS -22.9200 163.200 40 992 nadi main 242 242 O_____O_O___O_ jtwc_sh SH261997 -23.1000 163.200 35 0 -22.8000 163.200 30 35 992 3.50000 -22.8000 163.200 40 992 -22.8000 163.200 40 992 -23.1000 163.200 TC 35 15 145
1997045S11163 1997 13 SP MM HAROLD 1997-02-20 15:00:00 TS -23.5949 163.712 main 275 275 P_____PIP___P_ SH261997 -23.6550 163.630 32 -1 -23.5279 163.729 30 35 993 -23.5682 163.786 37 993 -23.5682 163.786 37 993 -23.6550 163.630 TC 32 17 149
1997045S11163 1997 13 SP MM HAROLD 1997-02-20 18:00:00 TS -24.3800 164.160 35 994 nadi main 322 322 O_____O_O___O_ jtwc_sh SH261997 -24.3000 164.000 30 -1 -24.3000 164.200 30 35 994 3.00000 -24.5000 164.300 35 994 -24.5000 164.300 35 994 -24.3000 164.000 TC 30 17 159
1997045S11163 1997 13 SP MM HAROLD 1997-02-20 21:00:00 TS -25.2077 164.385 main 382 382 P_____PIP___P_ SH261997 -25.0698 164.273 30 -1 -24.8847 164.426 30 32 995 -25.5071 164.476 35 994 -25.5071 164.476 35 994 -25.0698 164.273 TC 30 17 170
1997045S11163 1997 13 SP MM HAROLD 1997-02-21 00:00:00 TS -26.0600 164.500 35 994 wellington main 466 466 O_____O_O___O_ jtwc_sh SH261997 -25.9000 164.500 30 -1 -25.5000 164.500 20 30 996 2.50000 -26.5000 164.500 35 994 -26.5000 164.500 35 994 -25.9000 164.500 TC 30 17 172
1997045S11163 1997 13 SP MM HAROLD 1997-02-21 03:00:00 TS -26.8670 164.634 main 545 545 P_____PIP___P_ SH261997 -26.6776 164.780 27 -1 -26.2900 164.523 20 32 994 -27.3449 164.543 37 992 -27.3449 164.543 35 992 -26.6776 164.780 TC 27 16 172
1997045S11163 1997 13 SP MM HAROLD 1997-02-21 06:00:00 TS -27.6800 164.740 35 991 wellington main 625 625 O_____O_O___O_ jtwc_sh SH261997 -27.5000 165.000 25 -1 -27.2000 164.500 71 35 993 -28.1000 164.600 40 991 -28.1000 164.600 35 991 -27.5000 165.000 TC 25 17 175
1997045S11163 1997 13 SP MM HAROLD 1997-02-21 09:00:00 TS -28.5669 164.814 main 718 718 P_____PIP___P_ SH261997 -28.4574 165.066 25 -1 -28.2598 164.441 71 35 993 -28.8300 164.750 40 991 -28.8300 164.750 35 991 -28.4574 165.066 TC 25 17 175
1997045S11163 1997 13 SP MM HAROLD 1997-02-21 12:00:00 TS -29.4000 164.900 35 991 wellington main 802 802 O_____O_O___O_ jtwc_sh SH261997 -29.4000 165.100 25 -1 -29.2000 164.500 71 35 993 -29.5000 164.900 40 991 -29.5000 164.900 35 991 -29.4000 165.100 TC 25 15 173
1997045S11163 1997 13 SP MM HAROLD 1997-02-21 15:00:00 TS -30.0658 165.022 main 865 817 P_____PIP___P_ SH261997 -30.2100 165.235 25 -1 -29.6955 164.885 71 37 992 -30.1067 164.855 40 991 -30.1071 164.899 35 991 -30.2100 165.235 TC 25 13 168
1997045S11163 1997 13 SP MM HAROLD 1997-02-21 18:00:00 TS -30.6600 165.220 35 991 wellington main 811 751 O_____O_O___O_ jtwc_sh SH261997 -30.9000 165.400 25 -1 -30.1000 165.300 71 40 992 -30.7000 165.000 40 991 -30.7000 165.000 35 991 -30.9000 165.400 TC 25 13 160
1997045S11163 1997 13 SP MM HAROLD 1997-02-21 21:00:00 TS -31.3075 165.544 main 751 686 P_____PIP___P_ SH261997 -31.4948 165.521 25 -1 -30.7847 165.416 71 37 993 -31.3824 165.803 37 992 -31.3806 165.461 35 992 -31.4948 165.521 TC 25 14 155
1997045S11163 1997 13 SP MM HAROLD 1997-02-22 00:00:00 TS -31.9000 165.900 35 994 wellington main 686 645 O_____O_O___O_ jtwc_sh SH261997 -32.0000 165.700 25 -1 -31.5000 165.500 71 35 995 -32.0000 166.600 35 994 -32.0000 166.000 35 994 -32.0000 165.700 TC 25 12 155
1997045S11163 1997 13 SP MM HAROLD 1997-02-22 03:00:00 TS -32.3856 166.144 main 645 603 P_____PIP___P_ SH261997 -32.4724 165.998 25 -1 -32.0950 165.762 71 35 995 -32.4440 166.656 32 995 -32.4445 166.309 32 995 -32.4724 165.998 TC 25 10 154
1997045S11163 1997 13 SP MM HAROLD 1997-02-22 06:00:00 TS -32.8111 166.428 30 996 wellington main 603 553 O_____O_O___O_ jtwc_sh SH261997 -32.9000 166.400 25 -1 -32.6000 166.100 71 35 995 -32.8000 166.600 30 996 -32.8000 166.600 30 996 -32.9000 166.400 TC 25 10 144
1997045S11163 1997 13 SP MM HAROLD 1997-02-22 09:00:00 TS -33.2232 166.858 main 544 488 P_____PIP___P_ SH261997 -33.3074 166.870 25 -1 -33.0226 166.450 71 32 996 -33.1487 166.917 30 997 -33.1921 167.008 30 997 -33.3074 166.870 TC 25 11 134
1997045S11163 1997 13 SP MM HAROLD 1997-02-22 12:00:00 TS -33.5917 167.392 30 998 wellington main 488 427 O_____O_O___O_ jtwc_sh SH261997 -33.7000 167.400 25 -1 -33.4000 166.800 70 30 997 -33.5000 167.500 30 998 -33.5000 167.500 30 998 -33.7000 167.400 TC 25 12 125
1997045S11163 1997 13 SP MM HAROLD 1997-02-22 15:00:00 TS -33.8796 168.002 main 427 371 P_______P___P_ SH261997 -34.0979 167.946 25 -1 70 -33.6613 168.058 28 999 -34.0979 167.946 TC 25 11 110
1997045S11163 1997 13 SP MM HAROLD 1997-02-22 18:00:00 TS -33.9608 168.620 main 371 316 O_______P___O_ jtwc_sh SH261997 -34.5000 168.500 25 -1 -33.6912 168.680 27 1000 -34.5000 168.500 TC 25 11 77
1997045S11163 1997 13 SP MM HAROLD 1997-02-22 21:00:00 NR -33.6253 169.337 main 319 263 ________P_____ SH261997 -1 -33.6253 169.337 26 1001 TC 12 68
1997045S11163 1997 13 SP MM HAROLD 1997-02-23 00:00:00 NR -33.5000 170.000 25 1002 wellington main 263 221 ________O_____ -1 -33.5000 170.000 25 1002 11 77
1997045S11163 1997 13 SP MM HAROLD 1997-02-23 03:00:00 NR -33.3784 170.626 main 221 192 ________P_____ -1 -33.3784 170.626 25 1002 11 74
1997045S11163 1997 13 SP MM HAROLD 1997-02-23 06:00:00 NR -33.2087 171.251 main 188 176 ________P_____ -1 -33.2087 171.251 25 1003 11 71
1997045S11163 1997 13 SP MM HAROLD 1997-02-23 09:00:00 NR -33.0097 171.875 main 179 176 ________P_____ -1 -33.0097 171.875 25 1003 11 69
1997045S11163 1997 13 SP MM HAROLD 1997-02-23 12:00:00 NR -32.8000 172.500 25 1004 wellington main 189 189 ________O_____ -1 -32.8000 172.500 25 1004 11 68
1997045S11163 1997 13 SP MM HAROLD 1997-02-23 15:00:00 NR -32.5949 173.125 main 212 212 ________P_____ -1 -32.5949 173.125 25 1004 11 69
1997045S11163 1997 13 SP MM HAROLD 1997-02-23 18:00:00 NR -32.3950 173.751 main 245 245 ________P_____ -1 -32.3950 173.751 25 1005 11 69
1997045S11163 1997 13 SP MM HAROLD 1997-02-23 21:00:00 NR -32.1977 174.376 main 287 287 ________P_____ -1 -32.1977 174.376 25 1006 11 70
1997045S11163 1997 13 SP MM HAROLD 1997-02-24 00:00:00 NR -32.0000 175.000 25 1007 wellington main 334 ________O_____ -1 -32.0000 175.000 25 1007 11 70

デジタル台風データ・検索

IBTrACS Databaseについて

本データベースは、米国NOAAが公開する1842年以降の世界の熱帯低気圧のベストトラックデータアーカイブInternational Best Track Archive for Climate Stewardship (IBTrACS)を、ウェブで閲覧しやすい形式に変換したものです。

最終更新日:2021-10-19